Terminal Aerodrome Forecast
Issued by NWS

Home | Current Version | Previous Version | Text Only | Print | Product List | Glossary On
Versions: 1 2 3 4 5 6 7 8 9 10 11 12 13 14 15 16 17
000
FTUS42 KTBW 312002 AAA
TAFPGD
TAF AMD
KPGD 312002Z 3120/0118 29011G18KT P6SM VCTS SCT030CB BKN050 BKN100
      TEMPO 3120/3121 VRB15G25KT 3SM TSRA BKN020CB
     FM010000 17005KT P6SM SCT020 BKN250
     FM011400 20010KT P6SM VCTS SCT030CB BKN250=

USA.gov is the U.S. government's official web portal to all federal, state and local government web resources and services.